Etusivu
METAR-TAF:

METAR-TAF

Lentoasemat :

Windom Municipal Airport

Windom, Minnesota, Yhdysvallat

Leveyspiiri: 43-54-48N, Pituuspiiri: 095-06-34W, korkeus merenpinnasta: 430 m

Tämänhetkinen sää

Tämä raportti tehtiin 49 minuuttia sitten, kello 00.00 UTC
Tuuli 7 kn kaakosta
Lämpötila -12°C
Kosteus 85%
Ilmanpaine 1027 hPa
Näkyvyys: 16.1 km
Hajanaisia pilviä 9000 ft:n korkeudessa

METAR: KMWM 200000Z AUTO 14007KT 10SM SCT090 M12/M14 A3032 RMK AO2

Aika: 18:49 (00:49 UTC)


TAF: puuttuu

Säähavainnot ja -ennusteet yli 4000 lentoasemalta (METAR- ja TAF-raportit).

Käytössä olevat sääasemat on merkitty karttaan keltaisilla ja punaisilla pisteillä.

Aseta hiiri pisteen päälle nähdäksesi sääaseman nimen.

Klikkaa sitten nähdäksesi säähavainnot ja -ennusteet.

Kartan vaihtaminen: klikkaa mustalla rastilla varustettuja vihreitä pisteitä, niin voit zoomata sisään; viivalla varustettua vihreää pistettä, niin voit zoomata ulos tai vihreitä nuolia, niin pääset viereisille kartoille.


METAR-TAF: